Time;durP1;ratioP1;P1;durP2;ratioP2;P2;SDS_P1;SDS_P2;PMS_P1;PMS_P2;Temp;Humidity;BMP_temperature;BMP_pressure;BME280_temperature;BME280_humidity;BME280_pressure;Samples;Min_cycle;Max_cycle;Signal;HPM_P1;HPM_P2
2023/03/09 00:03:24;;;;;;;2.13;1.80;;;14.10;39.60;;;;;;10318838;28;20234;-71
2023/03/09 00:08:29;;;;;;;2.47;1.63;;;14.10;39.60;;;;;;10319877;28;20398;-72
2023/03/09 00:13:32;;;;;;;1.77;1.67;;;14.10;39.60;;;;;;10316075;28;20231;-72
2023/03/09 00:18:37;;;;;;;2.40;1.47;;;14.10;39.60;;;;;;10320085;28;20234;-71
2023/03/09 00:23:40;;;;;;;2.37;1.63;;;14.20;39.80;;;;;;10318501;28;20231;-71
2023/03/09 00:28:43;;;;;;;1.97;1.50;;;14.20;39.50;;;;;;10315127;28;20223;-71
2023/03/09 00:33:49;;;;;;;2.03;1.63;;;14.30;39.70;;;;;;10317724;28;20243;-72
2023/03/09 00:38:54;;;;;;;2.63;1.80;;;14.40;40.00;;;;;;10317919;28;20235;-72
2023/03/09 00:43:57;;;;;;;1.67;1.50;;;14.40;39.50;;;;;;10318995;28;20237;-71
2023/03/09 00:49:03;;;;;;;1.87;1.40;;;14.40;39.40;;;;;;10318129;28;20223;-72
2023/03/09 00:54:06;;;;;;;1.97;1.50;;;14.40;39.30;;;;;;10316772;28;20230;-71
2023/03/09 00:59:10;;;;;;;1.90;1.50;;;14.40;39.20;;;;;;10317871;28;20787;-71
2023/03/09 01:04:15;;;;;;;1.57;1.40;;;14.40;39.30;;;;;;10317325;28;20238;-72
2023/03/09 01:09:18;;;;;;;1.40;1.30;;;14.40;39.60;;;;;;10318661;28;20235;-72
2023/03/09 01:14:21;;;;;;;1.80;1.10;;;14.40;39.40;;;;;;10315950;28;20227;-72
2023/03/09 01:19:26;;;;;;;1.17;1.07;;;14.40;39.50;;;;;;10325048;28;20230;-71
2023/03/09 01:24:29;;;;;;;1.20;1.10;;;14.40;40.10;;;;;;10323152;28;20699;-71
2023/03/09 01:29:32;;;;;;;1.33;1.00;;;14.40;39.60;;;;;;10325763;28;20264;-71
2023/03/09 01:34:37;;;;;;;0.90;0.90;;;14.40;39.80;;;;;;10324953;28;20246;-71
2023/03/09 01:39:40;;;;;;;0.90;0.90;;;14.30;39.90;;;;;;10324109;28;20227;-71
2023/03/09 01:44:43;;;;;;;1.30;0.93;;;14.30;39.90;;;;;;10322360;28;20277;-71
2023/03/09 01:49:50;;;;;;;1.97;0.90;;;14.30;40.00;;;;;;10324400;28;20465;-71
2023/03/09 01:54:58;;;;;;;0.70;0.70;;;14.30;40.10;;;;;;10323439;28;20711;-71
2023/03/09 02:00:07;;;;;;;0.80;0.80;;;14.30;40.10;;;;;;10324765;28;20250;-71
2023/03/09 02:05:14;;;;;;;0.70;0.70;;;14.30;39.90;;;;;;10325472;28;20601;-71
2023/03/09 02:10:23;;;;;;;0.80;0.80;;;14.40;39.80;;;;;;10324586;28;20245;-71
2023/03/09 02:15:26;;;;;;;0.87;0.80;;;14.40;39.60;;;;;;10323305;28;20238;-71
2023/03/09 02:20:37;;;;;;;0.80;0.80;;;14.40;39.60;;;;;;10323184;28;20606;-71
2023/03/09 02:25:49;;;;;;;1.43;0.70;;;14.50;40.40;;;;;;10322574;28;20805;-71
2023/03/09 02:30:54;;;;;;;0.70;0.70;;;14.40;40.80;;;;;;10324997;28;20226;-72
2023/03/09 02:35:58;;;;;;;1.00;0.80;;;14.20;40.50;;;;;;10323458;28;20231;-71
2023/03/09 02:41:03;;;;;;;1.20;0.70;;;14.00;40.60;;;;;;10321275;28;20238;-72
2023/03/09 02:46:08;;;;;;;0.60;0.60;;;13.80;40.40;;;;;;10321152;28;20231;-72
2023/03/09 02:51:11;;;;;;;0.60;0.60;;;13.60;40.80;;;;;;10323341;28;20231;-71
2023/03/09 02:56:14;;;;;;;0.57;0.57;;;13.40;40.80;;;;;;10318302;28;20253;-71
2023/03/09 03:01:19;;;;;;;0.50;0.50;;;13.30;40.60;;;;;;10323203;28;20238;-72
2023/03/09 03:06:22;;;;;;;1.30;0.53;;;13.10;40.70;;;;;;10319813;28;20258;-72
2023/03/09 03:11:26;;;;;;;1.50;0.50;;;13.00;40.40;;;;;;10322535;28;20227;-71
2023/03/09 03:16:30;;;;;;;0.50;0.50;;;12.80;40.50;;;;;;10319963;28;20227;-72
2023/03/09 03:21:33;;;;;;;1.83;0.50;;;12.70;41.00;;;;;;10321640;28;20237;-72
2023/03/09 03:26:36;;;;;;;0.60;0.60;;;12.60;41.00;;;;;;10321481;28;20489;-72
2023/03/09 03:31:41;;;;;;;0.50;0.50;;;12.50;41.10;;;;;;10318870;28;20223;-72
2023/03/09 03:36:44;;;;;;;1.23;0.60;;;12.50;41.80;;;;;;10319858;28;20830;-72
2023/03/09 03:41:47;;;;;;;1.23;0.53;;;12.40;41.60;;;;;;10318933;28;20727;-72
2023/03/09 03:46:52;;;;;;;0.70;0.60;;;12.40;41.80;;;;;;10319509;28;20699;-72
2023/03/09 03:51:55;;;;;;;0.40;0.40;;;12.40;42.00;;;;;;10320544;28;20226;-72
2023/03/09 03:56:58;;;;;;;0.60;0.57;;;12.40;42.00;;;;;;10317890;28;21338;-72
2023/03/09 04:02:02;;;;;;;0.67;0.60;;;12.40;42.00;;;;;;10320977;28;20231;-71
2023/03/09 04:07:06;;;;;;;0.50;0.50;;;12.40;42.70;;;;;;10318529;28;20231;-72
2023/03/09 04:12:09;;;;;;;0.50;0.50;;;12.40;41.60;;;;;;10320449;28;20223;-72
2023/03/09 04:17:14;;;;;;;1.77;0.60;;;12.40;41.90;;;;;;10318056;28;20246;-72
2023/03/09 04:22:17;;;;;;;0.73;0.50;;;12.30;42.00;;;;;;10319622;28;20742;-71
2023/03/09 04:27:21;;;;;;;0.50;0.50;;;12.30;42.00;;;;;;10318734;28;20722;-72
2023/03/09 04:32:25;;;;;;;0.40;0.40;;;12.20;41.90;;;;;;10318700;28;20228;-72
2023/03/09 04:37:28;;;;;;;0.77;0.60;;;12.30;42.00;;;;;;10320160;28;20238;-72
2023/03/09 04:42:32;;;;;;;0.50;0.50;;;12.20;41.90;;;;;;10315603;28;20323;-71
2023/03/09 04:47:36;;;;;;;0.50;0.50;;;12.20;41.90;;;;;;10317479;28;20231;-72
2023/03/09 04:52:39;;;;;;;0.63;0.63;;;12.20;41.90;;;;;;10317016;28;20226;-72
2023/03/09 04:57:43;;;;;;;0.93;0.60;;;12.20;41.90;;;;;;10314115;28;20758;-72
2023/03/09 05:02:47;;;;;;;1.27;0.70;;;12.20;41.90;;;;;;10318101;28;20234;-72
2023/03/09 05:07:50;;;;;;;0.60;0.60;;;12.20;42.80;;;;;;10317529;28;20234;-72
2023/03/09 05:12:54;;;;;;;1.00;0.80;;;12.40;42.40;;;;;;10317700;28;20219;-71
2023/03/09 05:17:58;;;;;;;0.83;0.73;;;12.40;42.50;;;;;;10317190;28;20226;-72
2023/03/09 05:23:02;;;;;;;1.10;1.00;;;12.40;43.00;;;;;;10313184;28;20238;-72
2023/03/09 05:28:06;;;;;;;1.50;1.40;;;12.50;42.60;;;;;;10314933;28;20234;-71
2023/03/09 05:33:10;;;;;;;1.67;0.80;;;12.60;42.70;;;;;;10311596;28;20238;-71
2023/03/09 05:38:13;;;;;;;1.00;0.70;;;12.60;42.80;;;;;;10316731;28;20239;-71
2023/03/09 05:43:17;;;;;;;1.53;0.70;;;12.60;42.20;;;;;;10313699;28;20622;-71
2023/03/09 05:48:21;;;;;;;1.60;1.00;;;12.70;42.30;;;;;;10314023;28;20239;-71
2023/03/09 05:53:24;;;;;;;1.53;0.83;;;12.70;42.30;;;;;;10316473;28;20230;-71
2023/03/09 05:58:27;;;;;;;1.27;0.80;;;12.70;42.40;;;;;;10313551;28;20234;-72
2023/03/09 06:03:32;;;;;;;0.97;0.70;;;12.70;42.30;;;;;;10323039;28;20239;-72
2023/03/09 06:08:35;;;;;;;2.10;0.80;;;12.70;42.30;;;;;;10322719;28;20238;-71
2023/03/09 06:13:38;;;;;;;1.10;1.00;;;12.70;42.30;;;;;;10323854;28;20233;-71
2023/03/09 06:18:43;;;;;;;1.57;0.70;;;12.70;42.30;;;;;;10321633;28;20238;-71
2023/03/09 06:23:47;;;;;;;3.27;1.10;;;12.70;42.30;;;;;;10323145;28;20261;-72
2023/03/09 06:28:51;;;;;;;2.37;0.80;;;12.60;42.20;;;;;;10318805;28;20235;-71
2023/03/09 06:33:57;;;;;;;0.83;0.70;;;12.70;42.30;;;;;;10319603;28;20727;-71
2023/03/09 06:39:00;;;;;;;0.70;0.70;;;12.70;42.30;;;;;;10320971;28;20238;-72
2023/03/09 06:44:04;;;;;;;0.80;0.80;;;12.70;42.30;;;;;;10323205;28;20239;-71
2023/03/09 06:49:08;;;;;;;1.50;0.90;;;12.70;42.10;;;;;;10321328;28;20235;-71
2023/03/09 06:54:11;;;;;;;2.37;1.53;;;12.70;42.30;;;;;;10323592;28;20281;-71
2023/03/09 06:59:14;;;;;;;2.50;1.20;;;12.70;42.20;;;;;;10311703;28;20223;-71
2023/03/09 07:04:19;;;;;;;1.30;1.10;;;12.70;41.90;;;;;;10319955;28;20596;-71
2023/03/09 07:09:25;;;;;;;2.80;1.40;;;12.70;42.30;;;;;;10321825;28;20609;-70
2023/03/09 07:14:29;;;;;;;1.80;1.20;;;12.70;42.30;;;;;;10320219;28;20522;-71
2023/03/09 07:19:33;;;;;;;1.80;1.40;;;12.70;41.80;;;;;;10320797;28;20721;-71
2023/03/09 07:24:37;;;;;;;3.20;1.30;;;12.70;42.10;;;;;;10321192;28;20250;-71
2023/03/09 07:29:40;;;;;;;4.57;1.60;;;12.70;41.60;;;;;;10310042;28;20231;-71
2023/03/09 07:34:45;;;;;;;3.03;1.60;;;12.70;41.50;;;;;;10309308;28;20227;-71
2023/03/09 07:39:48;;;;;;;3.17;1.40;;;12.70;41.50;;;;;;10313172;28;20233;-71
2023/03/09 07:44:51;;;;;;;4.17;1.50;;;12.70;41.20;;;;;;10312273;28;20227;-71
2023/03/09 07:49:56;;;;;;;1.90;1.50;;;12.70;41.10;;;;;;10312421;28;20242;-71
2023/03/09 07:55:00;;;;;;;3.70;1.30;;;12.70;41.20;;;;;;10312176;28;20242;-71
2023/03/09 08:00:06;;;;;;;3.27;1.43;;;12.80;41.40;;;;;;10313835;28;20234;-71
2023/03/09 08:05:11;;;;;;;5.03;1.97;;;12.90;41.30;;;;;;10315676;28;20238;-71
2023/03/09 08:10:15;;;;;;;3.60;1.30;;;13.00;41.10;;;;;;10319221;28;20234;-71
2023/03/09 08:15:20;;;;;;;4.60;1.73;;;13.10;41.10;;;;;;10318849;28;20237;-71
2023/03/09 08:20:24;;;;;;;5.43;1.70;;;13.20;41.00;;;;;;10319493;28;20230;-71
2023/03/09 08:25:28;;;;;;;3.03;1.60;;;13.30;41.20;;;;;;10316764;28;20231;-71
2023/03/09 08:30:32;;;;;;;3.83;2.03;;;13.40;41.20;;;;;;10319777;28;20235;-70
2023/03/09 08:35:36;;;;;;;6.70;3.13;;;13.60;41.20;;;;;;10315767;28;20233;-70
2023/03/09 08:40:41;;;;;;;7.17;3.20;;;13.80;41.10;;;;;;10316027;28;20237;-70
2023/03/09 08:45:46;;;;;;;5.37;3.43;;;13.90;41.00;;;;;;10317281;28;20250;-70
2023/03/09 08:50:51;;;;;;;4.60;2.30;;;14.10;40.80;;;;;;10317420;28;20227;-70
2023/03/09 08:55:54;;;;;;;4.13;2.17;;;14.20;40.60;;;;;;10316542;28;20223;-71
2023/03/09 09:00:57;;;;;;;3.20;2.10;;;14.20;40.50;;;;;;10316979;28;20605;-70
2023/03/09 09:06:05;;;;;;;4.27;1.77;;;14.20;40.70;;;;;;10307229;28;20235;-70
2023/03/09 09:11:10;;;;;;;2.40;1.40;;;14.30;40.50;;;;;;10303709;28;20227;-70
2023/03/09 09:16:15;;;;;;;3.10;1.63;;;14.30;40.50;;;;;;10314058;28;20262;-70
2023/03/09 09:21:19;;;;;;;3.80;2.20;;;14.30;40.30;;;;;;10314055;28;20239;-71
2023/03/09 09:26:23;;;;;;;3.90;1.50;;;14.30;40.50;;;;;;10314284;28;20638;-70
2023/03/09 09:31:26;;;;;;;3.17;1.60;;;14.40;40.00;;;;;;10316894;28;20227;-71
2023/03/09 09:36:30;;;;;;;2.50;1.63;;;14.40;40.00;;;;;;10313815;28;20752;-71
2023/03/09 09:41:41;;;;;;;2.73;1.13;;;14.40;39.90;;;;;;10321106;28;20273;-73
2023/03/09 09:46:46;;;;;;;2.97;1.80;;;14.40;39.60;;;;;;10321521;28;20253;-74
2023/03/09 09:52:22;;;;;;;4.77;1.63;;;14.50;39.50;;;;;;10319071;28;21146;-73
2023/03/09 09:57:38;;;;;;;2.30;1.30;;;14.60;39.20;;;;;;10295904;28;20237;-73
2023/03/09 10:02:56;;;;;;;1.97;1.17;;;14.60;39.30;;;;;;10319454;28;20238;-73
2023/03/09 10:08:11;;;;;;;2.37;1.20;;;14.70;38.90;;;;;;10319901;28;20242;-73
2023/03/09 10:13:19;;;;;;;3.53;1.30;;;14.80;38.70;;;;;;10319574;28;20222;-71
2023/03/09 10:18:30;;;;;;;3.63;1.30;;;14.80;38.70;;;;;;10320208;28;20231;-70
2023/03/09 10:23:35;;;;;;;2.80;1.23;;;14.80;38.40;;;;;;10318404;28;20230;-70
2023/03/09 10:28:43;;;;;;;3.00;1.40;;;14.90;38.60;;;;;;10319591;28;20226;-71
2023/03/09 10:33:51;;;;;;;2.00;1.03;;;14.80;38.20;;;;;;10319986;28;20234;-71
2023/03/09 10:38:57;;;;;;;2.40;1.00;;;14.80;38.10;;;;;;10316278;28;20231;-70
2023/03/09 10:44:00;;;;;;;3.07;1.50;;;14.80;38.80;;;;;;10315551;28;20231;-70
2023/03/09 10:49:12;;;;;;;1.83;1.23;;;14.80;38.50;;;;;;10317742;28;20235;-71
2023/03/09 10:54:23;;;;;;;1.57;1.10;;;14.90;38.30;;;;;;10316084;28;20223;-71
2023/03/09 10:59:28;;;;;;;2.37;1.00;;;15.00;37.90;;;;;;10318672;28;20641;-71
2023/03/09 11:04:36;;;;;;;2.37;1.20;;;15.10;38.40;;;;;;10319326;28;20721;-71
2023/03/09 11:09:49;;;;;;;2.90;1.13;;;15.20;37.90;;;;;;10318081;28;20599;-70
2023/03/09 11:14:54;;;;;;;2.20;1.10;;;15.20;37.60;;;;;;10318099;28;20222;-71
2023/03/09 11:20:20;;;;;;;1.33;1.10;;;15.30;37.80;;;;;;10316970;28;20263;-71
2023/03/09 11:25:37;;;;;;;2.43;1.20;;;15.30;37.20;;;;;;10318007;28;20238;-71
2023/03/09 11:30:41;;;;;;;3.00;1.63;;;15.30;37.40;;;;;;10316263;28;20611;-71
2023/03/09 11:35:46;;;;;;;2.63;1.30;;;15.40;38.30;;;;;;10314974;28;20649;-71
2023/03/09 11:40:59;;;;;;;2.83;1.50;;;15.50;37.60;;;;;;10314512;28;20301;-71
2023/03/09 11:46:08;;;;;;;1.70;1.13;;;15.60;37.40;;;;;;10316202;28;20245;-70
2023/03/09 11:51:17;;;;;;;1.77;1.50;;;15.60;37.50;;;;;;10316236;28;20313;-74
2023/03/09 11:56:27;;;;;;;2.80;1.50;;;15.70;38.60;;;;;;10317388;28;20223;-74
2023/03/09 12:01:36;;;;;;;3.53;1.77;;;15.60;38.40;;;;;;10317734;28;20222;-74
2023/03/09 12:06:45;;;;;;;2.43;1.40;;;15.40;37.90;;;;;;10315660;28;20281;-74
2023/03/09 12:11:53;;;;;;;2.03;1.00;;;15.10;38.40;;;;;;10312655;28;20230;-72
2023/03/09 12:17:03;;;;;;;2.53;1.40;;;14.90;39.40;;;;;;10313427;28;20249;-72
2023/03/09 12:22:12;;;;;;;2.03;1.30;;;14.80;39.40;;;;;;10314253;28;20219;-72
2023/03/09 12:27:20;;;;;;;1.57;1.20;;;14.90;39.60;;;;;;10304566;28;20219;-71
2023/03/09 12:32:40;;;;;;;2.23;1.17;;;14.90;40.40;;;;;;10309144;28;20563;-70
2023/03/09 12:38:20;;;;;;;2.03;1.30;;;15.00;40.00;;;;;;10308560;28;20313;-71
2023/03/09 12:43:45;;;;;;;1.33;1.00;;;15.20;39.80;;;;;;10306349;28;20239;-70
2023/03/09 12:48:49;;;;;;;2.60;1.30;;;15.40;39.00;;;;;;10312671;28;20578;-69
2023/03/09 12:54:01;;;;;;;2.27;0.90;;;15.60;38.60;;;;;;10313439;28;20598;-70
2023/03/09 12:59:09;;;;;;;1.63;0.90;;;15.70;38.30;;;;;;10310555;28;20223;-71
2023/03/09 13:04:18;;;;;;;1.00;0.90;;;15.70;38.10;;;;;;10314696;28;20222;-71
2023/03/09 13:09:26;;;;;;;1.53;1.10;;;15.70;38.40;;;;;;10313489;28;20240;-70
2023/03/09 13:15:07;;;;;;;2.87;1.07;;;15.80;38.20;;;;;;10317812;28;20230;-71
2023/03/09 13:20:25;;;;;;;1.53;0.90;;;16.00;37.70;;;;;;10318262;28;20246;-71
2023/03/09 13:25:34;;;;;;;1.23;0.80;;;16.10;36.60;;;;;;10318417;28;20237;-71
2023/03/09 13:30:42;;;;;;;1.87;1.10;;;16.30;36.60;;;;;;10319708;28;20248;-71
2023/03/09 13:35:51;;;;;;;1.50;1.07;;;16.40;36.80;;;;;;10317981;28;20231;-71
2023/03/09 13:40:58;;;;;;;2.43;1.00;;;16.60;35.60;;;;;;10316916;28;20231;-71
2023/03/09 13:46:12;;;;;;;1.90;1.10;;;16.80;36.20;;;;;;10318504;28;20310;-71
2023/03/09 13:51:37;;;;;;;1.40;1.00;;;16.90;35.20;;;;;;10317826;28;20308;-71
2023/03/09 13:56:40;;;;;;;2.37;1.00;;;16.90;34.40;;;;;;10315310;28;20234;-71
2023/03/09 14:01:44;;;;;;;2.50;1.00;;;17.00;35.60;;;;;;10316015;28;20227;-71
2023/03/09 14:06:48;;;;;;;2.50;0.93;;;17.00;33.90;;;;;;10316175;28;20235;-71
2023/03/09 14:12:23;;;;;;;2.73;1.20;;;17.00;34.70;;;;;;10315549;28;20374;-71
2023/03/09 14:17:29;;;;;;;3.00;1.37;;;16.90;33.00;;;;;;10313540;28;20230;-71
2023/03/09 14:22:32;;;;;;;2.57;1.43;;;16.90;33.80;;;;;;10315400;28;20231;-71
2023/03/09 14:27:36;;;;;;;3.43;1.90;;;16.90;34.00;;;;;;10314537;28;20238;-71
2023/03/09 14:32:56;;;;;;;2.27;1.50;;;16.90;33.80;;;;;;10316282;28;20223;-71
2023/03/09 14:37:59;;;;;;;2.93;1.00;;;16.90;32.70;;;;;;10316143;28;20243;-72
2023/03/09 14:43:32;;;;;;;1.50;1.03;;;16.90;33.80;;;;;;10319048;28;20231;-72
2023/03/09 14:48:37;;;;;;;1.67;0.97;;;16.90;33.80;;;;;;10314354;28;20242;-71
2023/03/09 14:53:51;;;;;;;2.63;1.30;;;16.90;33.80;;;;;;10317338;28;20231;-71
2023/03/09 14:58:54;;;;;;;4.40;1.13;;;16.90;32.80;;;;;;10318615;28;20227;-72
2023/03/09 15:03:59;;;;;;;1.30;0.90;;;16.90;33.80;;;;;;10318425;28;20230;-71
2023/03/09 15:09:02;;;;;;;1.93;1.00;;;16.90;33.30;;;;;;10317364;28;20346;-71
2023/03/09 15:14:10;;;;;;;2.53;1.00;;;16.90;33.80;;;;;;10313983;28;20227;-70
2023/03/09 15:19:18;;;;;;;1.67;0.90;;;16.90;32.50;;;;;;10314620;28;20231;-72
2023/03/09 15:24:22;;;;;;;1.57;1.20;;;16.90;32.30;;;;;;10316686;28;20234;-72
2023/03/09 15:29:25;;;;;;;1.50;0.90;;;16.80;33.00;;;;;;10315942;28;20615;-71
2023/03/09 15:34:29;;;;;;;1.53;0.97;;;16.80;32.80;;;;;;10311140;28;20278;-71
2023/03/09 15:39:33;;;;;;;1.43;0.80;;;16.80;32.50;;;;;;10312484;28;20235;-71
2023/03/09 15:44:38;;;;;;;1.10;0.90;;;16.70;32.70;;;;;;10313787;28;20618;-71
2023/03/09 15:49:43;;;;;;;1.40;0.80;;;16.70;32.60;;;;;;10313559;28;20235;-71
2023/03/09 15:54:47;;;;;;;1.33;1.00;;;16.60;32.20;;;;;;10311639;28;20255;-71
2023/03/09 15:59:51;;;;;;;1.70;1.00;;;16.60;32.90;;;;;;10314842;28;20234;-74
2023/03/09 16:04:56;;;;;;;2.03;1.50;;;16.60;32.60;;;;;;10311261;28;20226;-74
2023/03/09 16:09:59;;;;;;;5.47;2.40;;;16.60;32.70;;;;;;10313467;28;20231;-74
2023/03/09 16:15:02;;;;;;;2.87;1.60;;;16.50;32.90;;;;;;10312797;28;20222;-73
2023/03/09 16:20:14;;;;;;;1.50;1.30;;;16.60;33.50;;;;;;10312778;28;20229;-73
2023/03/09 16:25:18;;;;;;;1.30;1.13;;;16.50;31.90;;;;;;10312902;28;20261;-73
2023/03/09 16:30:21;;;;;;;1.50;1.00;;;16.50;33.00;;;;;;10315560;28;22483;-74
2023/03/09 16:35:27;;;;;;;1.23;0.93;;;16.50;33.30;;;;;;10310627;28;20230;-74
2023/03/09 16:40:32;;;;;;;1.83;1.00;;;16.50;32.60;;;;;;10312243;28;20234;-71
2023/03/09 16:45:35;;;;;;;1.07;0.80;;;16.50;32.70;;;;;;10305651;28;20314;-71
2023/03/09 16:50:41;;;;;;;1.83;0.83;;;16.50;32.80;;;;;;10312229;28;20758;-74
2023/03/09 16:55:44;;;;;;;2.23;0.80;;;16.50;31.50;;;;;;10311651;28;20264;-71
2023/03/09 17:00:48;;;;;;;0.70;0.70;;;16.50;31.90;;;;;;10306601;28;20231;-72
2023/03/09 17:05:53;;;;;;;1.10;0.97;;;16.40;31.80;;;;;;10312759;28;20234;-71
2023/03/09 17:10:57;;;;;;;1.50;1.00;;;16.40;31.50;;;;;;10308231;28;20230;-72
2023/03/09 17:16:00;;;;;;;4.67;1.10;;;16.40;32.00;;;;;;10308210;28;21185;-70
2023/03/09 17:21:05;;;;;;;1.50;1.10;;;16.30;31.60;;;;;;10308025;28;20275;-71
2023/03/09 17:26:09;;;;;;;1.40;1.20;;;16.30;31.40;;;;;;10309701;28;20231;-69
2023/03/09 17:31:14;;;;;;;2.73;1.80;;;16.20;31.70;;;;;;10311173;28;20234;-69
2023/03/09 17:36:19;;;;;;;1.97;1.43;;;16.10;31.80;;;;;;10310351;28;20645;-71
2023/03/09 17:41:24;;;;;;;3.80;3.30;;;16.00;31.80;;;;;;10309565;28;20319;-71
2023/03/09 17:46:27;;;;;;;2.17;1.67;;;15.90;31.80;;;;;;10311046;28;20237;-71
2023/03/09 17:51:32;;;;;;;1.53;1.00;;;15.80;31.80;;;;;;10308750;28;20277;-71
2023/03/09 17:56:35;;;;;;;1.63;1.47;;;15.70;31.60;;;;;;10312391;28;20227;-71
2023/03/09 18:01:39;;;;;;;2.03;1.43;;;15.50;32.10;;;;;;10315667;28;20230;-71
2023/03/09 18:06:44;;;;;;;3.00;1.70;;;15.40;32.30;;;;;;10318022;28;20776;-71
2023/03/09 18:11:47;;;;;;;1.73;1.47;;;15.30;32.00;;;;;;10319965;28;20245;-71
2023/03/09 18:16:50;;;;;;;3.70;1.93;;;15.20;32.30;;;;;;10321165;28;20250;-71
2023/03/09 18:21:54;;;;;;;2.10;1.50;;;15.10;32.20;;;;;;10318615;28;20242;-72
2023/03/09 18:26:57;;;;;;;2.70;1.87;;;15.00;32.10;;;;;;10310792;28;20238;-71
2023/03/09 18:32:02;;;;;;;2.37;1.80;;;15.00;32.10;;;;;;10320257;28;20737;-72
2023/03/09 18:37:06;;;;;;;4.57;3.53;;;15.00;32.10;;;;;;10322153;28;20227;-71
2023/03/09 18:42:10;;;;;;;5.83;5.23;;;14.90;32.00;;;;;;10320752;28;20285;-71
2023/03/09 18:47:13;;;;;;;14.43;13.03;;;14.80;31.90;;;;;;10319911;28;20223;-71
2023/03/09 18:52:18;;;;;;;16.23;14.40;;;14.70;31.80;;;;;;10329988;28;20311;-71
2023/03/09 18:57:22;;;;;;;10.57;9.57;;;14.60;31.80;;;;;;10317606;28;20249;-72
2023/03/09 19:02:29;;;;;;;9.50;8.57;;;14.60;31.80;;;;;;10315772;28;20227;-72
2023/03/09 19:07:34;;;;;;;8.27;7.40;;;14.60;31.80;;;;;;10313513;28;20223;-72
2023/03/09 19:12:37;;;;;;;5.87;4.90;;;14.50;31.70;;;;;;10313787;28;20219;-72
2023/03/09 19:17:40;;;;;;;4.67;2.60;;;14.50;31.70;;;;;;10315168;28;20219;-74
2023/03/09 19:22:47;;;;;;;9.20;8.27;;;14.50;31.70;;;;;;10317966;28;20599;-74
2023/03/09 19:27:51;;;;;;;9.27;8.23;;;14.40;31.60;;;;;;10303764;28;20778;-72
2023/03/09 19:32:54;;;;;;;6.67;5.27;;;14.20;31.40;;;;;;10315032;28;20329;-72
2023/03/09 19:38:00;;;;;;;5.00;4.17;;;14.00;31.20;;;;;;10317261;28;20235;-72
2023/03/09 19:43:06;;;;;;;5.90;4.60;;;13.80;31.60;;;;;;10314828;28;20309;-72
2023/03/09 19:48:09;;;;;;;10.67;8.97;;;13.80;31.60;;;;;;10314135;28;20227;-72
2023/03/09 19:53:13;;;;;;;9.43;7.50;;;13.60;31.50;;;;;;10315350;28;20237;-71
2023/03/09 19:58:18;;;;;;;5.90;4.50;;;13.60;31.90;;;;;;10313934;28;20238;-74
2023/03/09 20:03:21;;;;;;;4.93;4.40;;;13.50;32.00;;;;;;10315332;28;20628;-74
2023/03/09 20:08:27;;;;;;;5.20;3.70;;;13.40;32.10;;;;;;10314485;28;20238;-72
2023/03/09 20:13:30;;;;;;;3.50;3.20;;;13.40;32.10;;;;;;10314968;28;20234;-73
2023/03/09 20:18:33;;;;;;;4.23;3.33;;;13.40;32.10;;;;;;10313018;28;20227;-72
2023/03/09 20:23:39;;;;;;;3.57;3.20;;;13.40;32.10;;;;;;10314380;28;20599;-71
2023/03/09 20:28:44;;;;;;;5.10;3.03;;;13.40;32.20;;;;;;10315278;28;20230;-74
2023/03/09 20:33:48;;;;;;;3.60;3.30;;;13.40;32.10;;;;;;10313417;28;20231;-72
2023/03/09 20:38:53;;;;;;;5.27;3.60;;;13.40;31.90;;;;;;10312935;28;20231;-74
2023/03/09 20:43:56;;;;;;;6.00;5.40;;;13.30;31.70;;;;;;10308810;28;20700;-72
2023/03/09 20:49:00;;;;;;;11.00;9.30;;;13.20;31.80;;;;;;10310896;28;20285;-71
2023/03/09 20:54:05;;;;;;;12.37;9.70;;;13.10;31.80;;;;;;10313738;28;20704;-72
2023/03/09 20:59:09;;;;;;;7.43;5.73;;;12.90;31.70;;;;;;10314141;28;20853;-72
2023/03/09 21:04:13;;;;;;;6.63;4.60;;;12.70;31.60;;;;;;10313070;28;20227;-72
2023/03/09 21:09:20;;;;;;;7.87;4.20;;;12.50;31.70;;;;;;10315791;28;20233;-72
2023/03/09 21:14:23;;;;;;;5.97;4.10;;;12.20;31.90;;;;;;10312423;28;20285;-72
2023/03/09 21:19:27;;;;;;;6.67;4.50;;;12.00;32.20;;;;;;10310351;28;20753;-72
2023/03/09 21:24:31;;;;;;;5.00;4.43;;;11.90;32.40;;;;;;10308280;28;20235;-72
2023/03/09 21:29:35;;;;;;;7.80;5.17;;;11.80;32.50;;;;;;10310001;28;20238;-72
2023/03/09 21:34:38;;;;;;;7.97;5.20;;;11.70;32.40;;;;;;10316421;28;20281;-72
2023/03/09 21:39:42;;;;;;;6.80;4.60;;;11.60;32.40;;;;;;10319331;28;20231;-71
2023/03/09 21:44:45;;;;;;;6.73;4.60;;;11.40;32.50;;;;;;10319617;28;20806;-71
2023/03/09 21:49:49;;;;;;;5.63;4.60;;;11.20;32.50;;;;;;10319215;28;20230;-73
2023/03/09 21:54:54;;;;;;;6.13;4.60;;;11.00;32.70;;;;;;10320045;28;20322;-71
2023/03/09 21:59:57;;;;;;;4.47;4.07;;;10.80;33.10;;;;;;10320116;28;20239;-71
2023/03/09 22:10:12;;;;;;;10.63;7.27;;;10.70;33.30;;;;;;10340342;28;20518;-72
2023/03/09 22:15:16;;;;;;;8.70;6.03;;;10.60;33.50;;;;;;10356693;28;20226;-71
2023/03/09 22:20:20;;;;;;;7.97;5.43;;;10.70;33.30;;;;;;10362778;28;20237;-72
2023/03/09 22:25:25;;;;;;;5.10;4.13;;;10.60;33.30;;;;;;10359314;28;20237;-71
2023/03/09 22:30:28;;;;;;;5.03;4.53;;;10.50;33.40;;;;;;10362955;28;20226;-72
2023/03/09 22:35:31;;;;;;;6.20;4.87;;;10.50;33.40;;;;;;10363237;28;20229;-72
2023/03/09 22:40:36;;;;;;;6.73;4.60;;;10.50;33.50;;;;;;10363449;28;20305;-72
2023/03/09 22:45:39;;;;;;;7.30;4.70;;;10.40;33.70;;;;;;10362489;28;20234;-72
2023/03/09 22:50:42;;;;;;;7.90;4.83;;;10.40;33.80;;;;;;10357561;28;20276;-71
2023/03/09 22:55:48;;;;;;;6.53;4.90;;;10.40;33.90;;;;;;10359885;28;20246;-71
2023/03/09 23:00:51;;;;;;;6.73;4.77;;;10.40;34.20;;;;;;10363585;28;20230;-71
2023/03/09 23:05:54;;;;;;;6.00;4.47;;;10.40;34.10;;;;;;10359334;28;20237;-71
2023/03/09 23:11:00;;;;;;;6.60;4.57;;;10.30;34.10;;;;;;10359957;28;20230;-71
2023/03/09 23:16:04;;;;;;;5.87;4.23;;;10.30;34.20;;;;;;10359665;28;20229;-72
2023/03/09 23:21:11;;;;;;;4.43;4.03;;;10.30;34.10;;;;;;10360749;28;20228;-72
2023/03/09 23:26:16;;;;;;;8.47;4.20;;;10.20;34.30;;;;;;10360887;28;20226;-71
2023/03/09 23:31:20;;;;;;;6.07;4.30;;;10.20;34.70;;;;;;10362581;28;20232;-72
2023/03/09 23:36:23;;;;;;;4.83;3.80;;;10.10;34.70;;;;;;10360583;28;20237;-72
2023/03/09 23:41:30;;;;;;;5.43;3.60;;;10.10;35.00;;;;;;10362274;28;20234;-71
2023/03/09 23:46:34;;;;;;;4.67;3.23;;;10.10;36.10;;;;;;10358075;28;20226;-71
2023/03/09 23:51:37;;;;;;;6.10;3.53;;;10.10;35.20;;;;;;10359943;28;20226;-72
2023/03/09 23:56:42;;;;;;;4.93;3.50;;;10.10;35.20;;;;;;10358435;28;20241;-72
